sensor_id;sensor_type;location;lat;lon;timestamp;temperature;humidity
39103;DHT22;24847;48.218;16.414;2023-06-22T00:01:16;21.70;99.90
39103;DHT22;24847;48.218;16.414;2023-06-22T00:06:20;21.80;99.90
39103;DHT22;24847;48.218;16.414;2023-06-22T00:11:23;21.80;99.90
39103;DHT22;24847;48.218;16.414;2023-06-22T00:16:26;21.70;99.90
39103;DHT22;24847;48.218;16.414;2023-06-22T00:21:29;21.70;99.90
39103;DHT22;24847;48.218;16.414;2023-06-22T00:26:31;21.70;99.90
39103;DHT22;24847;48.218;16.414;2023-06-22T00:31:35;21.80;99.90
39103;DHT22;24847;48.218;16.414;2023-06-22T00:36:37;21.50;99.90
39103;DHT22;24847;48.218;16.414;2023-06-22T00:41:41;21.40;99.90
39103;DHT22;24847;48.218;16.414;2023-06-22T00:46:45;21.30;99.90
39103;DHT22;24847;48.218;16.414;2023-06-22T00:51:47;21.30;99.90
39103;DHT22;24847;48.218;16.414;2023-06-22T00:56:49;21.70;99.90
39103;DHT22;24847;48.218;16.414;2023-06-22T01:01:54;21.30;99.90
39103;DHT22;24847;48.218;16.414;2023-06-22T01:07:02;21.20;99.90
39103;DHT22;24847;48.218;16.414;2023-06-22T01:12:15;21.20;99.90
39103;DHT22;24847;48.218;16.414;2023-06-22T01:17:20;21.20;99.90
39103;DHT22;24847;48.218;16.414;2023-06-22T01:22:24;21.30;99.90
39103;DHT22;24847;48.218;16.414;2023-06-22T01:27:36;21.30;99.90
39103;DHT22;24847;48.218;16.414;2023-06-22T01:32:44;21.20;99.90
39103;DHT22;24847;48.218;16.414;2023-06-22T01:37:48;21.00;99.90
39103;DHT22;24847;48.218;16.414;2023-06-22T01:42:51;21.30;99.90
39103;DHT22;24847;48.218;16.414;2023-06-22T01:47:55;21.60;99.90
39103;DHT22;24847;48.218;16.414;2023-06-22T01:52:58;21.70;99.90
39103;DHT22;24847;48.218;16.414;2023-06-22T01:58:00;21.70;99.90
39103;DHT22;24847;48.218;16.414;2023-06-22T02:03:10;21.70;99.90
39103;DHT22;24847;48.218;16.414;2023-06-22T02:08:16;21.20;99.90
39103;DHT22;24847;48.218;16.414;2023-06-22T02:13:23;21.20;99.90
39103;DHT22;24847;48.218;16.414;2023-06-22T02:18:27;21.10;99.90
39103;DHT22;24847;48.218;16.414;2023-06-22T02:23:30;21.10;99.90
39103;DHT22;24847;48.218;16.414;2023-06-22T02:28:33;20.90;99.90
39103;DHT22;24847;48.218;16.414;2023-06-22T02:33:37;21.10;99.90
39103;DHT22;24847;48.218;16.414;2023-06-22T02:38:41;20.90;99.90
39103;DHT22;24847;48.218;16.414;2023-06-22T02:43:46;20.90;99.90
39103;DHT22;24847;48.218;16.414;2023-06-22T02:48:50;20.80;99.90
39103;DHT22;24847;48.218;16.414;2023-06-22T02:53:52;20.80;99.90
39103;DHT22;24847;48.218;16.414;2023-06-22T02:58:58;21.10;99.90
39103;DHT22;24847;48.218;16.414;2023-06-22T03:04:03;21.20;99.90
39103;DHT22;24847;48.218;16.414;2023-06-22T03:09:05;20.90;99.90
39103;DHT22;24847;48.218;16.414;2023-06-22T03:14:08;20.60;99.90
39103;DHT22;24847;48.218;16.414;2023-06-22T03:19:12;20.70;99.90
39103;DHT22;24847;48.218;16.414;2023-06-22T03:24:14;20.70;99.90
39103;DHT22;24847;48.218;16.414;2023-06-22T03:29:16;20.70;99.90
39103;DHT22;24847;48.218;16.414;2023-06-22T03:34:20;21.00;99.90
39103;DHT22;24847;48.218;16.414;2023-06-22T03:39:22;20.70;99.90
39103;DHT22;24847;48.218;16.414;2023-06-22T03:44:24;20.80;99.90
39103;DHT22;24847;48.218;16.414;2023-06-22T03:49:28;21.00;99.90
39103;DHT22;24847;48.218;16.414;2023-06-22T03:54:31;20.80;99.90
39103;DHT22;24847;48.218;16.414;2023-06-22T03:59:33;20.80;99.90
39103;DHT22;24847;48.218;16.414;2023-06-22T04:04:37;20.50;99.90
39103;DHT22;24847;48.218;16.414;2023-06-22T04:09:39;20.60;99.90
39103;DHT22;24847;48.218;16.414;2023-06-22T04:14:42;20.60;99.90
39103;DHT22;24847;48.218;16.414;2023-06-22T04:19:45;20.90;99.90
39103;DHT22;24847;48.218;16.414;2023-06-22T04:24:48;20.80;99.90
39103;DHT22;24847;48.218;16.414;2023-06-22T04:29:53;21.00;99.90
39103;DHT22;24847;48.218;16.414;2023-06-22T04:34:57;21.00;99.90
39103;DHT22;24847;48.218;16.414;2023-06-22T04:40:01;21.30;99.90
39103;DHT22;24847;48.218;16.414;2023-06-22T04:45:05;21.80;99.90
39103;DHT22;24847;48.218;16.414;2023-06-22T04:50:09;21.90;99.90
39103;DHT22;24847;48.218;16.414;2023-06-22T04:55:12;21.90;99.90
39103;DHT22;24847;48.218;16.414;2023-06-22T05:00:19;22.00;99.90
39103;DHT22;24847;48.218;16.414;2023-06-22T05:05:25;22.40;99.90
39103;DHT22;24847;48.218;16.414;2023-06-22T05:10:28;22.50;99.90
39103;DHT22;24847;48.218;16.414;2023-06-22T05:15:30;22.30;99.90
39103;DHT22;24847;48.218;16.414;2023-06-22T05:20:38;22.70;99.90
39103;DHT22;24847;48.218;16.414;2023-06-22T05:25:41;22.80;99.90
39103;DHT22;24847;48.218;16.414;2023-06-22T05:30:43;23.40;99.90
39103;DHT22;24847;48.218;16.414;2023-06-22T05:35:47;23.40;99.90
39103;DHT22;24847;48.218;16.414;2023-06-22T05:40:49;24.10;99.90
39103;DHT22;24847;48.218;16.414;2023-06-22T05:45:51;24.30;99.90
39103;DHT22;24847;48.218;16.414;2023-06-22T05:50:55;24.70;99.90
39103;DHT22;24847;48.218;16.414;2023-06-22T05:55:57;24.30;99.90
39103;DHT22;24847;48.218;16.414;2023-06-22T06:00:59;24.30;99.90
39103;DHT22;24847;48.218;16.414;2023-06-22T06:06:04;24.80;99.90
39103;DHT22;24847;48.218;16.414;2023-06-22T06:11:06;25.00;99.90
39103;DHT22;24847;48.218;16.414;2023-06-22T06:16:09;25.10;99.90
39103;DHT22;24847;48.218;16.414;2023-06-22T06:21:12;25.30;99.90
39103;DHT22;24847;48.218;16.414;2023-06-22T06:26:14;25.60;99.90
39103;DHT22;24847;48.218;16.414;2023-06-22T06:31:18;26.30;99.90
39103;DHT22;24847;48.218;16.414;2023-06-22T06:36:22;26.70;99.90
39103;DHT22;24847;48.218;16.414;2023-06-22T06:41:24;27.10;99.90
39103;DHT22;24847;48.218;16.414;2023-06-22T06:46:26;26.90;99.90
39103;DHT22;24847;48.218;16.414;2023-06-22T06:51:30;27.50;99.90
39103;DHT22;24847;48.218;16.414;2023-06-22T06:56:32;27.20;99.90
39103;DHT22;24847;48.218;16.414;2023-06-22T07:01:35;27.20;99.90
39103;DHT22;24847;48.218;16.414;2023-06-22T07:06:38;27.10;99.90
39103;DHT22;24847;48.218;16.414;2023-06-22T07:11:41;27.00;99.90
39103;DHT22;24847;48.218;16.414;2023-06-22T07:16:43;27.90;99.90
39103;DHT22;24847;48.218;16.414;2023-06-22T07:21:46;28.10;99.90
39103;DHT22;24847;48.218;16.414;2023-06-22T07:26:49;28.10;99.90
39103;DHT22;24847;48.218;16.414;2023-06-22T07:31:52;28.40;99.90
39103;DHT22;24847;48.218;16.414;2023-06-22T07:36:58;28.80;99.90
39103;DHT22;24847;48.218;16.414;2023-06-22T07:42:00;29.00;99.90
39103;DHT22;24847;48.218;16.414;2023-06-22T07:47:03;29.10;99.90
39103;DHT22;24847;48.218;16.414;2023-06-22T07:52:07;29.70;99.90
39103;DHT22;24847;48.218;16.414;2023-06-22T07:57:10;29.80;99.90
39103;DHT22;24847;48.218;16.414;2023-06-22T08:02:12;29.90;99.90
39103;DHT22;24847;48.218;16.414;2023-06-22T08:07:16;29.40;99.90
39103;DHT22;24847;48.218;16.414;2023-06-22T08:12:20;30.00;99.90
39103;DHT22;24847;48.218;16.414;2023-06-22T08:17:22;30.40;99.90
39103;DHT22;24847;48.218;16.414;2023-06-22T08:22:26;30.20;99.90
39103;DHT22;24847;48.218;16.414;2023-06-22T08:27:30;30.90;99.90
39103;DHT22;24847;48.218;16.414;2023-06-22T08:32:32;29.50;99.90
39103;DHT22;24847;48.218;16.414;2023-06-22T08:37:36;30.40;99.90
39103;DHT22;24847;48.218;16.414;2023-06-22T08:42:40;30.50;99.90
39103;DHT22;24847;48.218;16.414;2023-06-22T08:47:43;30.10;99.90
39103;DHT22;24847;48.218;16.414;2023-06-22T08:52:47;29.80;99.90
39103;DHT22;24847;48.218;16.414;2023-06-22T08:57:50;31.20;99.90
39103;DHT22;24847;48.218;16.414;2023-06-22T09:02:52;31.30;99.90
39103;DHT22;24847;48.218;16.414;2023-06-22T09:07:59;31.00;99.90
39103;DHT22;24847;48.218;16.414;2023-06-22T09:13:01;30.70;99.90
39103;DHT22;24847;48.218;16.414;2023-06-22T09:18:03;30.70;99.90
39103;DHT22;24847;48.218;16.414;2023-06-22T09:23:07;31.20;99.90
39103;DHT22;24847;48.218;16.414;2023-06-22T09:28:10;30.50;99.90
39103;DHT22;24847;48.218;16.414;2023-06-22T09:33:12;30.40;99.90
39103;DHT22;24847;48.218;16.414;2023-06-22T09:38:16;31.20;99.90
39103;DHT22;24847;48.218;16.414;2023-06-22T09:43:18;31.00;99.90
39103;DHT22;24847;48.218;16.414;2023-06-22T09:48:20;30.90;99.90
39103;DHT22;24847;48.218;16.414;2023-06-22T09:53:24;30.70;99.90
39103;DHT22;24847;48.218;16.414;2023-06-22T09:58:26;31.10;99.90
39103;DHT22;24847;48.218;16.414;2023-06-22T10:03:28;30.60;99.90
39103;DHT22;24847;48.218;16.414;2023-06-22T10:08:32;31.20;99.90
39103;DHT22;24847;48.218;16.414;2023-06-22T10:13:34;30.80;99.90
39103;DHT22;24847;48.218;16.414;2023-06-22T10:18:36;31.00;99.90
39103;DHT22;24847;48.218;16.414;2023-06-22T10:23:40;31.00;99.90
39103;DHT22;24847;48.218;16.414;2023-06-22T10:28:42;30.40;99.90
39103;DHT22;24847;48.218;16.414;2023-06-22T10:33:44;30.30;99.90
39103;DHT22;24847;48.218;16.414;2023-06-22T10:38:48;30.10;99.90
39103;DHT22;24847;48.218;16.414;2023-06-22T10:43:50;30.00;99.90
39103;DHT22;24847;48.218;16.414;2023-06-22T10:48:53;30.30;99.90
39103;DHT22;24847;48.218;16.414;2023-06-22T10:53:59;30.50;99.90
39103;DHT22;24847;48.218;16.414;2023-06-22T10:59:01;30.40;99.90
39103;DHT22;24847;48.218;16.414;2023-06-22T11:04:03;30.10;99.90
39103;DHT22;24847;48.218;16.414;2023-06-22T11:09:07;29.90;99.90
39103;DHT22;24847;48.218;16.414;2023-06-22T11:14:09;30.00;99.90
39103;DHT22;24847;48.218;16.414;2023-06-22T11:19:12;30.10;99.90
39103;DHT22;24847;48.218;16.414;2023-06-22T11:24:16;29.90;99.90
39103;DHT22;24847;48.218;16.414;2023-06-22T11:29:19;29.70;99.90
39103;DHT22;24847;48.218;16.414;2023-06-22T11:34:21;30.10;99.90
39103;DHT22;24847;48.218;16.414;2023-06-22T11:39:24;29.80;99.90
39103;DHT22;24847;48.218;16.414;2023-06-22T11:44:27;29.80;99.90
39103;DHT22;24847;48.218;16.414;2023-06-22T11:49:29;29.80;99.90
39103;DHT22;24847;48.218;16.414;2023-06-22T11:54:33;29.40;99.90
39103;DHT22;24847;48.218;16.414;2023-06-22T11:59:36;29.50;99.90
39103;DHT22;24847;48.218;16.414;2023-06-22T12:04:38;29.70;99.90
39103;DHT22;24847;48.218;16.414;2023-06-22T12:09:42;29.80;99.90
39103;DHT22;24847;48.218;16.414;2023-06-22T12:14:44;29.60;99.90
39103;DHT22;24847;48.218;16.414;2023-06-22T12:19:47;29.50;99.90
39103;DHT22;24847;48.218;16.414;2023-06-22T12:24:52;29.60;99.90
39103;DHT22;24847;48.218;16.414;2023-06-22T12:29:54;29.40;99.90
39103;DHT22;24847;48.218;16.414;2023-06-22T12:34:57;29.40;99.90
39103;DHT22;24847;48.218;16.414;2023-06-22T12:40:00;29.50;99.90
39103;DHT22;24847;48.218;16.414;2023-06-22T12:45:05;29.50;99.90
39103;DHT22;24847;48.218;16.414;2023-06-22T12:50:08;29.30;99.90
39103;DHT22;24847;48.218;16.414;2023-06-22T12:55:12;29.30;99.90
39103;DHT22;24847;48.218;16.414;2023-06-22T13:00:15;29.30;99.90
39103;DHT22;24847;48.218;16.414;2023-06-22T13:05:19;29.40;99.90
39103;DHT22;24847;48.218;16.414;2023-06-22T13:10:23;29.10;99.90
39103;DHT22;24847;48.218;16.414;2023-06-22T13:15:25;29.40;99.90
39103;DHT22;24847;48.218;16.414;2023-06-22T13:20:29;29.30;99.90
39103;DHT22;24847;48.218;16.414;2023-06-22T13:25:32;29.40;99.90
39103;DHT22;24847;48.218;16.414;2023-06-22T13:30:34;29.40;99.90
39103;DHT22;24847;48.218;16.414;2023-06-22T13:35:37;29.30;99.90
39103;DHT22;24847;48.218;16.414;2023-06-22T13:40:40;29.20;99.90
39103;DHT22;24847;48.218;16.414;2023-06-22T13:45:43;29.40;99.90
39103;DHT22;24847;48.218;16.414;2023-06-22T13:50:45;29.30;99.90
39103;DHT22;24847;48.218;16.414;2023-06-22T13:55:49;29.40;99.90
39103;DHT22;24847;48.218;16.414;2023-06-22T14:00:51;29.40;99.90
39103;DHT22;24847;48.218;16.414;2023-06-22T14:05:54;29.60;99.90
39103;DHT22;24847;48.218;16.414;2023-06-22T14:10:58;29.60;99.90
39103;DHT22;24847;48.218;16.414;2023-06-22T14:16:01;29.50;99.90
39103;DHT22;24847;48.218;16.414;2023-06-22T14:21:04;29.40;99.90
39103;DHT22;24847;48.218;16.414;2023-06-22T14:26:08;29.40;99.90
39103;DHT22;24847;48.218;16.414;2023-06-22T14:31:10;29.40;99.90
39103;DHT22;24847;48.218;16.414;2023-06-22T14:36:12;29.50;99.90
39103;DHT22;24847;48.218;16.414;2023-06-22T14:41:16;29.30;99.90
39103;DHT22;24847;48.218;16.414;2023-06-22T14:46:19;29.20;99.90
39103;DHT22;24847;48.218;16.414;2023-06-22T14:51:21;29.20;99.90
39103;DHT22;24847;48.218;16.414;2023-06-22T14:56:25;29.20;99.90
39103;DHT22;24847;48.218;16.414;2023-06-22T15:01:27;29.10;99.90
39103;DHT22;24847;48.218;16.414;2023-06-22T15:06:30;29.10;99.90
39103;DHT22;24847;48.218;16.414;2023-06-22T15:11:33;29.10;99.90
39103;DHT22;24847;48.218;16.414;2023-06-22T15:16:35;29.10;99.90
39103;DHT22;24847;48.218;16.414;2023-06-22T15:21:38;29.20;99.90
39103;DHT22;24847;48.218;16.414;2023-06-22T15:26:42;29.30;99.90
39103;DHT22;24847;48.218;16.414;2023-06-22T15:31:44;29.40;99.90
39103;DHT22;24847;48.218;16.414;2023-06-22T15:36:46;29.30;99.90
39103;DHT22;24847;48.218;16.414;2023-06-22T15:41:50;29.30;99.90
39103;DHT22;24847;48.218;16.414;2023-06-22T15:46:54;29.40;99.90
39103;DHT22;24847;48.218;16.414;2023-06-22T15:51:56;29.40;99.90
39103;DHT22;24847;48.218;16.414;2023-06-22T15:57:00;29.30;99.90
39103;DHT22;24847;48.218;16.414;2023-06-22T16:02:02;29.40;99.90
39103;DHT22;24847;48.218;16.414;2023-06-22T16:07:05;29.40;99.90
39103;DHT22;24847;48.218;16.414;2023-06-22T16:12:09;29.30;99.90
39103;DHT22;24847;48.218;16.414;2023-06-22T16:17:11;29.30;99.90
39103;DHT22;24847;48.218;16.414;2023-06-22T16:22:14;29.20;99.90
39103;DHT22;24847;48.218;16.414;2023-06-22T16:27:19;29.20;99.90
39103;DHT22;24847;48.218;16.414;2023-06-22T16:32:22;29.20;99.90
39103;DHT22;24847;48.218;16.414;2023-06-22T16:37:24;29.10;99.90
39103;DHT22;24847;48.218;16.414;2023-06-22T16:42:27;29.10;99.90
39103;DHT22;24847;48.218;16.414;2023-06-22T16:47:30;29.20;99.90
39103;DHT22;24847;48.218;16.414;2023-06-22T16:52:33;29.10;99.90
39103;DHT22;24847;48.218;16.414;2023-06-22T16:57:36;29.10;99.90
39103;DHT22;24847;48.218;16.414;2023-06-22T17:02:43;29.00;99.90
39103;DHT22;24847;48.218;16.414;2023-06-22T17:07:52;29.00;99.90
39103;DHT22;24847;48.218;16.414;2023-06-22T17:12:56;28.90;99.90
39103;DHT22;24847;48.218;16.414;2023-06-22T17:17:59;28.80;99.90
39103;DHT22;24847;48.218;16.414;2023-06-22T17:23:01;28.70;99.90
39103;DHT22;24847;48.218;16.414;2023-06-22T17:28:05;28.60;99.90
39103;DHT22;24847;48.218;16.414;2023-06-22T17:33:08;28.50;99.90
39103;DHT22;24847;48.218;16.414;2023-06-22T17:38:20;28.60;99.90
39103;DHT22;24847;48.218;16.414;2023-06-22T17:43:24;28.50;99.90
39103;DHT22;24847;48.218;16.414;2023-06-22T17:48:29;28.50;99.90
39103;DHT22;24847;48.218;16.414;2023-06-22T17:53:33;28.50;99.90
39103;DHT22;24847;48.218;16.414;2023-06-22T17:58:36;28.40;99.90
39103;DHT22;24847;48.218;16.414;2023-06-22T18:03:39;28.30;99.90
39103;DHT22;24847;48.218;16.414;2023-06-22T18:08:41;28.10;99.90
39103;DHT22;24847;48.218;16.414;2023-06-22T18:13:44;28.00;99.90
39103;DHT22;24847;48.218;16.414;2023-06-22T18:18:47;27.90;99.90
39103;DHT22;24847;48.218;16.414;2023-06-22T18:23:50;27.90;99.90
39103;DHT22;24847;48.218;16.414;2023-06-22T18:28:55;27.80;99.90
39103;DHT22;24847;48.218;16.414;2023-06-22T18:33:58;27.80;99.90
39103;DHT22;24847;48.218;16.414;2023-06-22T18:39:02;27.70;99.90
39103;DHT22;24847;48.218;16.414;2023-06-22T18:44:17;27.70;99.90
39103;DHT22;24847;48.218;16.414;2023-06-22T18:49:23;27.40;99.90
39103;DHT22;24847;48.218;16.414;2023-06-22T18:54:33;27.30;99.90
39103;DHT22;24847;48.218;16.414;2023-06-22T18:59:48;27.20;99.90
39103;DHT22;24847;48.218;16.414;2023-06-22T19:05:05;27.20;99.90
39103;DHT22;24847;48.218;16.414;2023-06-22T19:10:22;27.00;99.90
39103;DHT22;24847;48.218;16.414;2023-06-22T19:15:31;27.00;99.90
39103;DHT22;24847;48.218;16.414;2023-06-22T19:20:36;26.90;99.90
39103;DHT22;24847;48.218;16.414;2023-06-22T19:25:45;26.90;99.90
39103;DHT22;24847;48.218;16.414;2023-06-22T19:30:51;26.90;99.90
39103;DHT22;24847;48.218;16.414;2023-06-22T19:35:55;26.90;99.90
39103;DHT22;24847;48.218;16.414;2023-06-22T19:40:58;26.80;99.90
39103;DHT22;24847;48.218;16.414;2023-06-22T19:46:03;26.70;99.90
39103;DHT22;24847;48.218;16.414;2023-06-22T19:51:06;26.60;99.90
39103;DHT22;24847;48.218;16.414;2023-06-22T19:56:09;26.80;99.90
39103;DHT22;24847;48.218;16.414;2023-06-22T20:01:13;26.70;99.90
39103;DHT22;24847;48.218;16.414;2023-06-22T20:06:16;26.60;99.90
39103;DHT22;24847;48.218;16.414;2023-06-22T20:11:24;26.70;99.90
39103;DHT22;24847;48.218;16.414;2023-06-22T20:16:29;26.60;99.90
39103;DHT22;24847;48.218;16.414;2023-06-22T20:21:32;26.60;99.90
39103;DHT22;24847;48.218;16.414;2023-06-22T20:26:38;26.40;99.90
39103;DHT22;24847;48.218;16.414;2023-06-22T20:31:42;26.30;99.90
39103;DHT22;24847;48.218;16.414;2023-06-22T20:36:45;26.30;99.90
39103;DHT22;24847;48.218;16.414;2023-06-22T20:41:47;26.20;99.90
39103;DHT22;24847;48.218;16.414;2023-06-22T20:46:51;26.20;99.90
39103;DHT22;24847;48.218;16.414;2023-06-22T20:51:55;25.90;99.90
39103;DHT22;24847;48.218;16.414;2023-06-22T20:56:58;26.20;99.90
39103;DHT22;24847;48.218;16.414;2023-06-22T21:02:01;26.70;99.90
39103;DHT22;24847;48.218;16.414;2023-06-22T21:07:05;26.60;99.90
39103;DHT22;24847;48.218;16.414;2023-06-22T21:12:08;26.20;99.90
39103;DHT22;24847;48.218;16.414;2023-06-22T21:17:11;25.70;99.90
39103;DHT22;24847;48.218;16.414;2023-06-22T21:22:14;25.60;99.90
39103;DHT22;24847;48.218;16.414;2023-06-22T21:27:16;25.90;99.90
39103;DHT22;24847;48.218;16.414;2023-06-22T21:32:20;25.80;99.90
39103;DHT22;24847;48.218;16.414;2023-06-22T21:37:22;25.60;99.90
39103;DHT22;24847;48.218;16.414;2023-06-22T21:42:25;25.70;99.90
39103;DHT22;24847;48.218;16.414;2023-06-22T21:47:29;25.50;99.90
39103;DHT22;24847;48.218;16.414;2023-06-22T21:52:31;25.30;99.90
39103;DHT22;24847;48.218;16.414;2023-06-22T21:57:33;25.20;99.90
39103;DHT22;24847;48.218;16.414;2023-06-22T22:02:37;25.50;99.90
39103;DHT22;24847;48.218;16.414;2023-06-22T22:07:39;26.10;99.90
39103;DHT22;24847;48.218;16.414;2023-06-22T22:12:42;26.00;99.90
39103;DHT22;24847;48.218;16.414;2023-06-22T22:17:45;26.10;99.90
39103;DHT22;24847;48.218;16.414;2023-06-22T22:22:48;26.50;99.90
39103;DHT22;24847;48.218;16.414;2023-06-22T22:27:50;26.70;99.90
39103;DHT22;24847;48.218;16.414;2023-06-22T22:32:54;26.60;99.90
39103;DHT22;24847;48.218;16.414;2023-06-22T22:37:56;26.70;99.90
39103;DHT22;24847;48.218;16.414;2023-06-22T22:42:58;26.70;99.90
39103;DHT22;24847;48.218;16.414;2023-06-22T22:48:02;26.70;99.90
39103;DHT22;24847;48.218;16.414;2023-06-22T22:53:04;26.70;99.90
39103;DHT22;24847;48.218;16.414;2023-06-22T22:58:08;26.50;99.90
39103;DHT22;24847;48.218;16.414;2023-06-22T23:03:12;26.30;99.90
39103;DHT22;24847;48.218;16.414;2023-06-22T23:08:14;26.40;99.90
39103;DHT22;24847;48.218;16.414;2023-06-22T23:13:17;26.50;99.90
39103;DHT22;24847;48.218;16.414;2023-06-22T23:18:20;26.50;99.90
39103;DHT22;24847;48.218;16.414;2023-06-22T23:23:22;26.60;99.90
39103;DHT22;24847;48.218;16.414;2023-06-22T23:28:25;26.70;99.90
39103;DHT22;24847;48.218;16.414;2023-06-22T23:33:28;26.70;99.90
39103;DHT22;24847;48.218;16.414;2023-06-22T23:38:31;26.70;99.90
39103;DHT22;24847;48.218;16.414;2023-06-22T23:43:34;26.80;99.90
39103;DHT22;24847;48.218;16.414;2023-06-22T23:48:37;26.70;99.90
39103;DHT22;24847;48.218;16.414;2023-06-22T23:53:40;26.70;99.90
39103;DHT22;24847;48.218;16.414;2023-06-22T23:58:42;26.70;99.90
